Grand Forks Air Force Base
KRDR : now visible

Airfield :











YOU CAN JOIN US ON...

 
LOGIN :

Register | Disclaimer

   EN    FR    IT 

 









Legend :    VFR   Marginal VFR   IFR   Intensive IFR   Very Intensive IFR
Visi :
Ceiling :
>= 8 km
>= 3000ft
5 to 8 km
1000 to 3000 ft
1500m to 5 km
500 to 1000 ft
800 to 1500m
200 to 500 ft
< 800m
< 200 ft
Symbols :   Thunderstorms  Fog  Heavy snow  Heavy precipitations  Wind > 20 kt







- Airport Elevation : 913 ft


KRDR - Grand Forks Air Force Base

METAR N/A
TAF TAF KRDR
Valid from the 19 at 10:00 until the 20 at 16:00 UTC


191000Z 1910/2016 24009KT 9999 SKC QNH2970INS
BECMG 1917/1918 20010G20KT 9999 SCT160 QNH2989INS
BECMG 1922/1923 19012KT 9999 SCT160 QNH2974INS
BECMG 2011/2012 19009KT 9999 BKN090 OVC150 QNH2955INS TX17/1919Z TN01/1910Z
KZMP FIR / North America



MET'MAP, your aeronautical weather chart ! - Copyright ORBIFLY December 2007 - Disclaimer

ORBIFLY MET'MAP TEAM :

Programming & Development : Alexandra Zaïnal
Concept & Development : Baudouin d'Aumeries
Co-Development & Prog : Marc-Olivier Méhu
Technical & hardware support : Manuel Goepfert

Contact : metmap@orbifly.com




SOURCES & CREDITS :

   NOAA       Earth
Advisory